Argyle, Texas
Current Conditions -  °F | °C
As of 12:53 AM on Wednesday 22 Oct 2014 (Local Time) from KDTO Reporting Station
Clear Clear  
Wind Chill: 61°   Ceiling: Unl
Heat Index: 61°   Visibility: 8mi
Dew Point: 58°   Wind: 3mph
Humidity: 90%   Direction: 190°S
Pressure: 30.07"   Gusts: NA
Location:  33.12°N, 97.18°W
Report Text: KDTO 220553Z AUTO 19003KT 8SM CLR 16/14 A3007 RMK AO2 SLP174 T01610144 10233 20156 402720122 50001
Loading
Personal Weather Stations






























Interactive Weather Map New forecast layout! Learn more

10-Day Weather Forecast

Advertisements
Track Severe Weather on mobile